Time;durP1;ratioP1;P1;durP2;ratioP2;P2;SDS_P1;SDS_P2;PMS_P1;PMS_P2;Temp;Humidity;BMP_temperature;BMP_pressure;BME280_temperature;BME280_humidity;BME280_pressure;Samples;Min_cycle;Max_cycle;Signal;HPM_P1;HPM_P2
2023/09/03 00:00:12;;;;;;;28.35;15.48;;;;;;;;;;5059613;28;20404;-84
2023/09/03 00:02:38;;;;;;;31.38;15.38;;;;;;;;;;5072005;28;20021;-84
2023/09/03 00:05:03;;;;;;;32.42;15.52;;;;;;;;;;5072323;28;20024;-84
2023/09/03 00:07:29;;;;;;;28.35;14.68;;;;;;;;;;5071862;28;20043;-84
2023/09/03 00:09:55;;;;;;;30.98;15.75;;;;;;;;;;5061725;28;20372;-84
2023/09/03 00:12:20;;;;;;;29.13;14.98;;;;;;;;;;5057464;28;20032;-84
2023/09/03 00:14:45;;;;;;;32.28;16.15;;;;;;;;;;5073345;28;20017;-84
2023/09/03 00:17:14;;;;;;;32.33;16.17;;;;;;;;;;5059039;28;20040;-83
2023/09/03 00:19:39;;;;;;;35.50;16.17;;;;;;;;;;5064980;28;20387;-84
2023/09/03 00:22:04;;;;;;;33.83;16.75;;;;;;;;;;5064013;28;20123;-84
2023/09/03 00:24:32;;;;;;;33.67;17.25;;;;;;;;;;5071331;28;20020;-83
2023/09/03 00:26:57;;;;;;;35.25;16.50;;;;;;;;;;5071506;28;20025;-84
2023/09/03 00:29:26;;;;;;;32.83;16.20;;;;;;;;;;5056931;28;20083;-84
2023/09/03 00:31:51;;;;;;;28.50;15.15;;;;;;;;;;5071901;28;20061;-84
2023/09/03 00:34:17;;;;;;;32.33;16.27;;;;;;;;;;5070808;28;20029;-84
2023/09/03 00:36:42;;;;;;;37.88;16.20;;;;;;;;;;5070988;28;20012;-84
2023/09/03 00:39:07;;;;;;;33.10;16.27;;;;;;;;;;5071521;28;20021;-84
2023/09/03 00:41:33;;;;;;;28.67;15.23;;;;;;;;;;5071419;28;20020;-84
2023/09/03 00:44:00;;;;;;;35.08;16.42;;;;;;;;;;5072611;28;20035;-84
2023/09/03 00:46:26;;;;;;;35.42;17.52;;;;;;;;;;5070829;28;20017;-84
2023/09/03 00:48:51;;;;;;;35.80;17.13;;;;;;;;;;5070673;28;20024;-84
2023/09/03 00:51:17;;;;;;;33.13;17.15;;;;;;;;;;5071250;28;20031;-84
2023/09/03 00:53:45;;;;;;;37.92;16.65;;;;;;;;;;5071380;28;20021;-84
2023/09/03 00:56:11;;;;;;;33.63;17.33;;;;;;;;;;5071986;28;20023;-84
2023/09/03 00:58:36;;;;;;;33.08;16.67;;;;;;;;;;5063833;28;20371;-84
2023/09/03 01:01:02;;;;;;;39.92;15.95;;;;;;;;;;5069452;28;20016;-84
2023/09/03 01:03:28;;;;;;;31.10;15.57;;;;;;;;;;5063938;28;20017;-84
2023/09/03 01:05:53;;;;;;;33.28;15.90;;;;;;;;;;5066457;28;20025;-84
2023/09/03 01:08:19;;;;;;;30.75;15.57;;;;;;;;;;5064188;28;20051;-84
2023/09/03 01:10:50;;;;;;;32.20;17.10;;;;;;;;;;5072529;28;20452;-84
2023/09/03 01:13:20;;;;;;;35.85;16.77;;;;;;;;;;5071248;28;20482;-84
2023/09/03 01:15:48;;;;;;;32.20;15.52;;;;;;;;;;5068268;28;20017;-84
2023/09/03 01:18:17;;;;;;;37.72;17.02;;;;;;;;;;5061145;28;20021;-84
2023/09/03 01:20:44;;;;;;;33.55;16.83;;;;;;;;;;5071943;28;20096;-84
2023/09/03 01:23:28;;;;;;;33.42;15.35;;;;;;;;;;5070783;28;20028;-84
2023/09/03 01:26:03;;;;;;;34.90;16.15;;;;;;;;;;5071486;28;20119;-84
2023/09/03 01:28:34;;;;;;;36.15;16.90;;;;;;;;;;5071437;28;20445;-83
2023/09/03 01:31:04;;;;;;;33.83;16.85;;;;;;;;;;5072555;28;20021;-84
2023/09/03 01:33:30;;;;;;;38.13;17.65;;;;;;;;;;5069745;28;20442;-84
2023/09/03 01:35:57;;;;;;;39.15;18.35;;;;;;;;;;5051832;28;20021;-83
2023/09/03 01:38:23;;;;;;;38.85;18.05;;;;;;;;;;5071167;28;20012;-84
2023/09/03 01:40:49;;;;;;;38.67;18.23;;;;;;;;;;5070901;28;20397;-84
2023/09/03 01:43:14;;;;;;;37.65;17.13;;;;;;;;;;5056865;28;20082;-84
2023/09/03 01:45:53;;;;;;;30.65;16.60;;;;;;;;;;5062803;28;20020;-84
2023/09/03 01:48:30;;;;;;;37.58;16.92;;;;;;;;;;5074133;28;20074;-84
2023/09/03 01:51:06;;;;;;;30.85;15.05;;;;;;;;;;5062100;28;20108;-84
2023/09/03 01:54:00;;;;;;;31.83;14.57;;;;;;;;;;5071815;28;20052;-84
2023/09/03 01:56:26;;;;;;;29.92;14.13;;;;;;;;;;5069344;28;20031;-84
2023/09/03 01:58:53;;;;;;;32.88;14.68;;;;;;;;;;5074384;28;20008;-84
2023/09/03 02:01:18;;;;;;;34.35;16.17;;;;;;;;;;5074331;28;20112;-84
2023/09/03 02:03:45;;;;;;;32.50;16.15;;;;;;;;;;5073335;28;20174;-84
2023/09/03 02:06:11;;;;;;;32.65;16.27;;;;;;;;;;5074307;28;20151;-84
2023/09/03 02:08:36;;;;;;;30.02;15.00;;;;;;;;;;5074054;28;20032;-84
2023/09/03 02:11:01;;;;;;;29.50;15.05;;;;;;;;;;5071921;28;20048;-84
2023/09/03 02:13:27;;;;;;;35.42;16.17;;;;;;;;;;5073328;28;20025;-84
2023/09/03 02:15:52;;;;;;;30.15;15.85;;;;;;;;;;5067376;28;20542;-84
2023/09/03 02:18:17;;;;;;;29.83;15.63;;;;;;;;;;5066617;28;20440;-84
2023/09/03 02:20:43;;;;;;;32.30;15.98;;;;;;;;;;5074430;28;20444;-84
2023/09/03 02:23:08;;;;;;;33.50;16.33;;;;;;;;;;5074140;28;20116;-84
2023/09/03 02:25:33;;;;;;;34.25;16.20;;;;;;;;;;5071658;28;20081;-83
2023/09/03 02:27:59;;;;;;;30.30;14.70;;;;;;;;;;5062350;28;20498;-84
2023/09/03 02:30:24;;;;;;;35.53;15.57;;;;;;;;;;5073868;28;20472;-84
2023/09/03 02:32:50;;;;;;;33.47;15.68;;;;;;;;;;5073834;28;20039;-84
2023/09/03 02:35:15;;;;;;;31.30;15.68;;;;;;;;;;5073135;28;20024;-84
2023/09/03 02:37:40;;;;;;;32.13;15.02;;;;;;;;;;5074030;28;20120;-84
2023/09/03 02:40:06;;;;;;;33.72;15.38;;;;;;;;;;5073595;28;20020;-83
2023/09/03 02:42:32;;;;;;;33.95;15.93;;;;;;;;;;5073925;28;20383;-84
2023/09/03 02:44:57;;;;;;;31.27;15.57;;;;;;;;;;5073609;28;20021;-84
2023/09/03 02:47:22;;;;;;;29.15;14.48;;;;;;;;;;5073337;28;20074;-83
2023/09/03 02:49:47;;;;;;;30.08;14.63;;;;;;;;;;5073613;28;20048;-84
2023/09/03 02:52:13;;;;;;;28.55;14.05;;;;;;;;;;5074073;28;20017;-84
2023/09/03 02:54:38;;;;;;;30.45;14.90;;;;;;;;;;5073938;28;20009;-84
2023/09/03 02:57:04;;;;;;;29.52;13.93;;;;;;;;;;5073257;28;20031;-84
2023/09/03 02:59:31;;;;;;;34.03;15.50;;;;;;;;;;5072594;28;20496;-83
2023/09/03 03:01:56;;;;;;;33.13;14.88;;;;;;;;;;5072883;28;20399;-84
2023/09/03 03:04:22;;;;;;;27.42;13.80;;;;;;;;;;5073146;28;20016;-84
2023/09/03 03:06:47;;;;;;;27.48;14.82;;;;;;;;;;5072008;28;20024;-84
2023/09/03 03:09:12;;;;;;;31.88;16.08;;;;;;;;;;5072957;28;20021;-84
2023/09/03 03:11:40;;;;;;;33.00;16.45;;;;;;;;;;5073988;28;20063;-83
2023/09/03 03:14:06;;;;;;;30.05;15.32;;;;;;;;;;5073345;28;20009;-84
2023/09/03 03:16:31;;;;;;;32.42;15.38;;;;;;;;;;5060512;28;20031;-83
2023/09/03 03:18:56;;;;;;;26.05;14.05;;;;;;;;;;5057143;28;20044;-84
2023/09/03 03:21:22;;;;;;;35.97;14.50;;;;;;;;;;5072943;28;20017;-83
2023/09/03 03:23:51;;;;;;;26.23;14.00;;;;;;;;;;5072925;28;20376;-84
2023/09/03 03:26:17;;;;;;;29.52;14.77;;;;;;;;;;5072084;28;20024;-84
2023/09/03 03:28:42;;;;;;;28.77;14.43;;;;;;;;;;5072970;28;20463;-84
2023/09/03 03:31:11;;;;;;;25.63;13.52;;;;;;;;;;5072813;28;20012;-83
2023/09/03 03:33:38;;;;;;;30.15;14.63;;;;;;;;;;5074090;28;20025;-83
2023/09/03 03:36:04;;;;;;;25.27;13.68;;;;;;;;;;5070273;28;20035;-84
2023/09/03 03:38:29;;;;;;;27.90;14.80;;;;;;;;;;5073276;28;20428;-83
2023/09/03 03:41:03;;;;;;;26.27;14.20;;;;;;;;;;5071868;28;20023;-84
2023/09/03 03:43:31;;;;;;;26.00;13.93;;;;;;;;;;5072951;28;20124;-84
2023/09/03 03:45:57;;;;;;;29.38;13.85;;;;;;;;;;5071948;28;20016;-83
2023/09/03 03:48:23;;;;;;;25.98;12.75;;;;;;;;;;5073065;28;20029;-84
2023/09/03 03:50:52;;;;;;;28.83;13.75;;;;;;;;;;5074167;28;20509;-84
2023/09/03 03:53:20;;;;;;;26.05;13.90;;;;;;;;;;5073054;28;20337;-84
2023/09/03 03:55:45;;;;;;;27.95;13.63;;;;;;;;;;5073322;28;20092;-84
2023/09/03 03:58:11;;;;;;;26.95;13.55;;;;;;;;;;5072555;28;20476;-84
2023/09/03 04:00:36;;;;;;;30.65;13.35;;;;;;;;;;5072630;28;20032;-83
2023/09/03 04:03:01;;;;;;;24.77;12.57;;;;;;;;;;5072411;28;20032;-83
2023/09/03 04:05:28;;;;;;;24.80;12.60;;;;;;;;;;5072024;28;20078;-82
2023/09/03 04:07:56;;;;;;;25.85;13.85;;;;;;;;;;5073713;28;20359;-83
2023/09/03 04:10:21;;;;;;;24.95;13.30;;;;;;;;;;5072650;28;20030;-83
2023/09/03 04:12:47;;;;;;;22.40;12.43;;;;;;;;;;5072069;28;20541;-83
2023/09/03 04:15:12;;;;;;;22.80;12.70;;;;;;;;;;5071296;28;20027;-84
2023/09/03 04:17:37;;;;;;;27.00;13.73;;;;;;;;;;5065205;28;20408;-83
2023/09/03 04:20:05;;;;;;;29.02;15.18;;;;;;;;;;5065175;28;20020;-84
2023/09/03 04:22:31;;;;;;;25.88;13.15;;;;;;;;;;5071891;28;20016;-84
2023/09/03 04:24:56;;;;;;;25.02;12.57;;;;;;;;;;5062091;28;20017;-83
2023/09/03 04:27:22;;;;;;;30.17;13.68;;;;;;;;;;5070729;28;20017;-84
2023/09/03 04:29:49;;;;;;;26.20;12.82;;;;;;;;;;5073325;28;20028;-84
2023/09/03 04:32:15;;;;;;;25.13;14.00;;;;;;;;;;5065754;28;20043;-84
2023/09/03 04:34:40;;;;;;;25.77;12.98;;;;;;;;;;5071935;28;20194;-83
2023/09/03 04:37:06;;;;;;;23.63;12.32;;;;;;;;;;5071780;28;20433;-83
2023/09/03 04:39:31;;;;;;;21.42;12.23;;;;;;;;;;5071715;28;20027;-84
2023/09/03 04:41:56;;;;;;;27.77;13.30;;;;;;;;;;5066697;28;20032;-83
2023/09/03 04:44:22;;;;;;;24.15;13.07;;;;;;;;;;5071969;28;20100;-84
2023/09/03 04:46:47;;;;;;;21.13;11.73;;;;;;;;;;5072213;28;20116;-83
2023/09/03 04:49:12;;;;;;;24.48;12.88;;;;;;;;;;5056985;28;20021;-83
2023/09/03 04:51:44;;;;;;;29.63;14.73;;;;;;;;;;5057909;28;20021;-84
2023/09/03 04:54:09;;;;;;;23.70;13.43;;;;;;;;;;5072705;28;20020;-83
2023/09/03 04:56:34;;;;;;;28.80;14.15;;;;;;;;;;5059588;28;20051;-82
2023/09/03 04:59:00;;;;;;;27.98;13.90;;;;;;;;;;5071994;28;20052;-84
2023/09/03 05:01:25;;;;;;;25.60;14.98;;;;;;;;;;5054660;28;20074;-84
2023/09/03 05:03:50;;;;;;;30.52;14.07;;;;;;;;;;5064092;28;20017;-84
2023/09/03 05:06:16;;;;;;;26.23;14.05;;;;;;;;;;5072961;28;20215;-83
2023/09/03 05:08:42;;;;;;;31.95;14.80;;;;;;;;;;5073602;28;20017;-83
2023/09/03 05:11:09;;;;;;;27.33;14.57;;;;;;;;;;5073277;28;20116;-84
2023/09/03 05:13:34;;;;;;;28.23;14.73;;;;;;;;;;5071653;28;20548;-83
2023/09/03 05:16:00;;;;;;;28.05;14.60;;;;;;;;;;5072939;28;20037;-83
2023/09/03 05:18:25;;;;;;;27.48;14.60;;;;;;;;;;5072462;28;20028;-84
2023/09/03 05:20:54;;;;;;;29.30;15.63;;;;;;;;;;5067303;28;20056;-83
2023/09/03 05:23:19;;;;;;;30.23;14.23;;;;;;;;;;5071612;28;20056;-84
2023/09/03 05:25:45;;;;;;;28.98;14.15;;;;;;;;;;5076101;28;20032;-84
2023/09/03 05:28:12;;;;;;;26.13;14.05;;;;;;;;;;5074791;28;20498;-83
2023/09/03 05:30:38;;;;;;;28.15;15.52;;;;;;;;;;5075141;28;20028;-84
2023/09/03 05:33:03;;;;;;;28.25;15.68;;;;;;;;;;5074714;28;20112;-83
2023/09/03 05:35:28;;;;;;;28.48;15.52;;;;;;;;;;5075689;28;20384;-83
2023/09/03 05:37:54;;;;;;;32.53;15.60;;;;;;;;;;5074566;28;20155;-83
2023/09/03 05:40:19;;;;;;;25.95;13.70;;;;;;;;;;5075004;28;20089;-83
2023/09/03 05:42:47;;;;;;;24.20;13.57;;;;;;;;;;5074819;28;20027;-84
2023/09/03 05:45:13;;;;;;;25.30;14.20;;;;;;;;;;5064838;28;20048;-84
2023/09/03 05:47:38;;;;;;;25.67;14.25;;;;;;;;;;5070075;28;20074;-84
2023/09/03 05:50:05;;;;;;;29.58;13.98;;;;;;;;;;5074698;28;20119;-84
2023/09/03 05:52:30;;;;;;;25.50;13.85;;;;;;;;;;5074945;28;20040;-84
2023/09/03 05:54:56;;;;;;;24.70;14.18;;;;;;;;;;5068629;28;20095;-84
2023/09/03 05:57:21;;;;;;;26.10;13.80;;;;;;;;;;5056247;28;20079;-84
2023/09/03 05:59:50;;;;;;;30.48;14.70;;;;;;;;;;5072638;28;20008;-84
2023/09/03 06:02:16;;;;;;;26.10;14.02;;;;;;;;;;5074436;28;20038;-84
2023/09/03 06:04:42;;;;;;;27.88;14.45;;;;;;;;;;5060215;28;20025;-84
2023/09/03 06:07:09;;;;;;;31.13;16.13;;;;;;;;;;5073326;28;20087;-84
2023/09/03 06:09:34;;;;;;;30.60;15.20;;;;;;;;;;5075204;28;20036;-83
2023/09/03 06:12:07;;;;;;;28.20;15.55;;;;;;;;;;5075322;28;20135;-83
2023/09/03 06:14:33;;;;;;;31.52;16.42;;;;;;;;;;5074698;28;20020;-84
2023/09/03 06:16:58;;;;;;;29.63;16.25;;;;;;;;;;5076264;28;20115;-84
2023/09/03 06:19:23;;;;;;;28.55;16.25;;;;;;;;;;5075593;28;20115;-84
2023/09/03 06:21:49;;;;;;;34.05;17.35;;;;;;;;;;5076109;28;20082;-84
2023/09/03 06:24:15;;;;;;;32.20;17.30;;;;;;;;;;5070867;28;20112;-84
2023/09/03 06:26:41;;;;;;;36.40;17.90;;;;;;;;;;5066678;28;20407;-84
2023/09/03 06:29:06;;;;;;;36.45;17.85;;;;;;;;;;5070478;28;20054;-84
2023/09/03 06:31:34;;;;;;;33.10;17.67;;;;;;;;;;5064248;28;20021;-84
2023/09/03 06:33:59;;;;;;;35.00;16.98;;;;;;;;;;5072168;28;20025;-84
2023/09/03 06:36:25;;;;;;;33.85;17.80;;;;;;;;;;5067660;28;20115;-84
2023/09/03 06:38:50;;;;;;;40.05;19.38;;;;;;;;;;5074863;28;20024;-84
2023/09/03 06:41:16;;;;;;;34.38;17.88;;;;;;;;;;5073782;28;20017;-83
2023/09/03 06:43:41;;;;;;;33.20;18.50;;;;;;;;;;5062534;28;20100;-84
2023/09/03 06:46:07;;;;;;;36.30;18.42;;;;;;;;;;5071723;28;20115;-83
2023/09/03 06:48:32;;;;;;;35.25;17.65;;;;;;;;;;5073832;28;20107;-83
2023/09/03 06:50:58;;;;;;;33.97;18.60;;;;;;;;;;5073748;28;20048;-84
2023/09/03 06:53:23;;;;;;;37.08;19.33;;;;;;;;;;5073731;28;20048;-84
2023/09/03 06:55:48;;;;;;;40.13;20.25;;;;;;;;;;5072601;28;20020;-84
2023/09/03 06:58:14;;;;;;;37.15;20.73;;;;;;;;;;5059125;28;20468;-84
2023/09/03 07:00:39;;;;;;;44.15;20.02;;;;;;;;;;5074464;28;20460;-84
2023/09/03 07:03:04;;;;;;;37.55;20.98;;;;;;;;;;5072958;28;20035;-84
2023/09/03 07:05:29;;;;;;;37.80;20.27;;;;;;;;;;5072131;28;20522;-84
2023/09/03 07:07:55;;;;;;;39.33;18.63;;;;;;;;;;5061948;28;20031;-84
2023/09/03 07:10:20;;;;;;;36.67;19.73;;;;;;;;;;5067392;28;20085;-85
2023/09/03 07:12:45;;;;;;;39.22;20.00;;;;;;;;;;5072705;28;20021;-84
2023/09/03 07:15:11;;;;;;;46.58;23.02;;;;;;;;;;5072352;28;20515;-83
2023/09/03 07:17:36;;;;;;;43.60;20.73;;;;;;;;;;5073263;28;20486;-84
2023/09/03 07:20:02;;;;;;;41.90;21.17;;;;;;;;;;5074198;28;20047;-84
2023/09/03 07:22:27;;;;;;;44.47;22.60;;;;;;;;;;5074278;28;20073;-84
2023/09/03 07:24:53;;;;;;;43.67;22.50;;;;;;;;;;5067000;28;20037;-84
2023/09/03 07:27:18;;;;;;;47.03;22.33;;;;;;;;;;5070408;28;20377;-84
2023/09/03 07:29:44;;;;;;;43.15;22.77;;;;;;;;;;5063058;28;20020;-84
2023/09/03 07:32:09;;;;;;;45.25;22.55;;;;;;;;;;5074409;28;20016;-85
2023/09/03 07:34:37;;;;;;;47.13;24.33;;;;;;;;;;5068950;28;20021;-84
2023/09/03 07:37:03;;;;;;;49.65;22.75;;;;;;;;;;5060449;28;20121;-84
2023/09/03 07:39:28;;;;;;;49.97;24.73;;;;;;;;;;5067990;28;20049;-84
2023/09/03 07:41:57;;;;;;;50.83;24.38;;;;;;;;;;5064346;28;20021;-84
2023/09/03 07:44:25;;;;;;;47.42;23.42;;;;;;;;;;5073902;28;20134;-84
2023/09/03 07:46:53;;;;;;;49.15;24.40;;;;;;;;;;5072817;28;20028;-84
2023/09/03 07:49:18;;;;;;;58.05;25.45;;;;;;;;;;5073666;28;20020;-84
2023/09/03 07:51:43;;;;;;;53.17;25.92;;;;;;;;;;5064891;28;20029;-85
2023/09/03 07:54:09;;;;;;;48.17;22.83;;;;;;;;;;5058799;28;20338;-86
2023/09/03 07:56:34;;;;;;;56.08;25.15;;;;;;;;;;5070575;28;20017;-83
2023/09/03 07:58:59;;;;;;;57.65;24.08;;;;;;;;;;5072389;28;20329;-85
2023/09/03 08:01:25;;;;;;;52.55;24.17;;;;;;;;;;5071749;28;20019;-86
2023/09/03 08:03:50;;;;;;;53.22;23.42;;;;;;;;;;5067744;28;20108;-85
2023/09/03 08:06:15;;;;;;;46.42;18.80;;;;;;;;;;5067406;28;20135;-86
2023/09/03 08:08:41;;;;;;;50.30;23.45;;;;;;;;;;5072427;28;20098;-85
2023/09/03 08:11:06;;;;;;;59.13;25.42;;;;;;;;;;5069689;28;20028;-86
2023/09/03 08:13:32;;;;;;;61.30;23.05;;;;;;;;;;5073241;28;20071;-85
2023/09/03 08:15:58;;;;;;;55.35;25.40;;;;;;;;;;5070703;28;20088;-85
2023/09/03 08:18:23;;;;;;;53.25;23.05;;;;;;;;;;5063805;28;20082;-85
2023/09/03 08:20:49;;;;;;;50.88;22.90;;;;;;;;;;5071202;28;20103;-86
2023/09/03 08:23:14;;;;;;;59.80;24.80;;;;;;;;;;5071750;28;20031;-86
2023/09/03 08:25:40;;;;;;;52.92;23.50;;;;;;;;;;5071157;28;20458;-85
2023/09/03 08:28:07;;;;;;;55.13;24.60;;;;;;;;;;5062353;28;20025;-86
2023/09/03 08:30:32;;;;;;;65.53;28.23;;;;;;;;;;5068411;28;20043;-86
2023/09/03 08:32:58;;;;;;;58.85;27.25;;;;;;;;;;5070322;28;20025;-86
2023/09/03 08:35:23;;;;;;;70.95;29.60;;;;;;;;;;5058643;28;20119;-85
2023/09/03 08:37:49;;;;;;;74.85;30.38;;;;;;;;;;5063151;28;20033;-86
2023/09/03 08:40:14;;;;;;;62.78;27.27;;;;;;;;;;5056524;28;20087;-86
2023/09/03 08:42:40;;;;;;;70.05;28.73;;;;;;;;;;5057131;28;20634;-86
2023/09/03 08:45:07;;;;;;;78.30;31.30;;;;;;;;;;5089690;28;20044;-85
2023/09/03 08:47:37;;;;;;;70.13;29.05;;;;;;;;;;5058493;28;20116;-85
2023/09/03 08:50:02;;;;;;;75.65;30.52;;;;;;;;;;5061591;28;20067;-86
2023/09/03 08:52:28;;;;;;;73.82;30.55;;;;;;;;;;5067713;28;20020;-86
2023/09/03 08:54:54;;;;;;;74.45;31.73;;;;;;;;;;5070890;28;20020;-86
2023/09/03 08:57:19;;;;;;;75.13;31.48;;;;;;;;;;5076685;28;20020;-86
2023/09/03 08:59:45;;;;;;;62.65;26.55;;;;;;;;;;5068124;28;20040;-85
2023/09/03 09:02:12;;;;;;;61.40;26.20;;;;;;;;;;5071418;28;20033;-86
2023/09/03 09:04:37;;;;;;;59.05;26.15;;;;;;;;;;5067209;28;20537;-86
2023/09/03 09:07:03;;;;;;;60.60;24.48;;;;;;;;;;5072867;28;20025;-86
2023/09/03 09:09:29;;;;;;;55.80;24.10;;;;;;;;;;5076213;28;20108;-86
2023/09/03 09:12:01;;;;;;;46.05;21.25;;;;;;;;;;5075503;28;20063;-85
2023/09/03 09:14:42;;;;;;;52.75;20.98;;;;;;;;;;5076069;28;20039;-85
2023/09/03 09:17:11;;;;;;;46.85;20.80;;;;;;;;;;5076257;28;20483;-85
2023/09/03 09:19:36;;;;;;;50.10;23.13;;;;;;;;;;5066058;28;20024;-84
2023/09/03 09:22:01;;;;;;;50.33;20.92;;;;;;;;;;5059295;28;20020;-85
2023/09/03 09:24:27;;;;;;;47.42;22.73;;;;;;;;;;5073470;28;20012;-86
2023/09/03 09:26:52;;;;;;;47.47;20.23;;;;;;;;;;5075550;28;20065;-85
2023/09/03 09:29:19;;;;;;;47.40;21.27;;;;;;;;;;5074293;28;20051;-86
2023/09/03 09:31:45;;;;;;;44.95;20.45;;;;;;;;;;5074577;28;20028;-86
2023/09/03 09:34:12;;;;;;;38.90;17.17;;;;;;;;;;5076535;28;20332;-86
2023/09/03 09:36:38;;;;;;;47.58;20.55;;;;;;;;;;5065873;28;20013;-85
2023/09/03 09:39:04;;;;;;;41.65;17.13;;;;;;;;;;5070883;28;20104;-86
2023/09/03 09:41:30;;;;;;;38.90;18.30;;;;;;;;;;5068092;28;20045;-86
2023/09/03 09:43:55;;;;;;;35.70;16.58;;;;;;;;;;5076167;28;20029;-85
2023/09/03 09:46:30;;;;;;;36.90;16.65;;;;;;;;;;5074616;28;20084;-86
2023/09/03 09:49:02;;;;;;;35.38;16.90;;;;;;;;;;5068437;28;20727;-86
2023/09/03 09:51:28;;;;;;;35.78;15.93;;;;;;;;;;5067804;28;20036;-86
2023/09/03 09:53:59;;;;;;;34.72;14.98;;;;;;;;;;5060006;28;20637;-85
2023/09/03 09:56:26;;;;;;;37.85;12.77;;;;;;;;;;5073529;28;20017;-86
2023/09/03 09:58:51;;;;;;;17.73;10.00;;;;;;;;;;5068506;28;20021;-85
2023/09/03 10:01:16;;;;;;;23.38;10.85;;;;;;;;;;5070581;28;20020;-86
2023/09/03 10:03:42;;;;;;;26.90;12.27;;;;;;;;;;5064351;28;20031;-85
2023/09/03 10:06:12;;;;;;;26.85;11.93;;;;;;;;;;5075079;28;20072;-85
2023/09/03 10:08:37;;;;;;;20.67;10.75;;;;;;;;;;5067221;28;20142;-86
2023/09/03 10:11:03;;;;;;;26.25;11.20;;;;;;;;;;5074352;28;20052;-86
2023/09/03 10:13:31;;;;;;;24.65;11.00;;;;;;;;;;5072314;28;20052;-86
2023/09/03 10:16:00;;;;;;;25.80;12.27;;;;;;;;;;5072345;28;20107;-86
2023/09/03 10:18:26;;;;;;;23.90;12.95;;;;;;;;;;5075959;28;20023;-85
2023/09/03 10:20:52;;;;;;;22.23;10.52;;;;;;;;;;5060353;28;20017;-86
2023/09/03 10:23:18;;;;;;;17.15;9.30;;;;;;;;;;5074815;28;20031;-86
2023/09/03 10:25:43;;;;;;;20.67;9.55;;;;;;;;;;5065898;28;20023;-85
2023/09/03 10:28:10;;;;;;;18.33;9.50;;;;;;;;;;5073887;28;20029;-85
2023/09/03 10:30:39;;;;;;;17.58;9.35;;;;;;;;;;5073889;28;20029;-86
2023/09/03 10:33:06;;;;;;;24.73;10.15;;;;;;;;;;5065670;28;20362;-85
2023/09/03 10:35:31;;;;;;;13.73;7.82;;;;;;;;;;5072695;28;20017;-85
2023/09/03 10:37:57;;;;;;;18.23;8.02;;;;;;;;;;5060242;28;20019;-85
2023/09/03 10:40:28;;;;;;;17.58;7.72;;;;;;;;;;5075091;28;20111;-85
2023/09/03 10:43:13;;;;;;;17.83;7.78;;;;;;;;;;5066373;28;20070;-82
2023/09/03 10:45:38;;;;;;;17.05;7.80;;;;;;;;;;5071299;28;20115;-83
2023/09/03 10:48:05;;;;;;;16.52;8.75;;;;;;;;;;5074096;28;20115;-83
2023/09/03 10:50:40;;;;;;;14.68;7.45;;;;;;;;;;5072064;28;20051;-83
2023/09/03 10:53:05;;;;;;;15.07;7.40;;;;;;;;;;5069884;28;20387;-81
2023/09/03 10:55:33;;;;;;;15.60;7.25;;;;;;;;;;5063792;28;20428;-82
2023/09/03 10:58:10;;;;;;;12.57;6.55;;;;;;;;;;5070880;28;20031;-83
2023/09/03 11:00:36;;;;;;;14.68;7.45;;;;;;;;;;5069505;28;20353;-83
2023/09/03 11:03:23;;;;;;;13.43;6.43;;;;;;;;;;5068298;28;20036;-83
2023/09/03 11:06:07;;;;;;;17.92;7.90;;;;;;;;;;5072781;28;20025;-83
2023/09/03 11:08:34;;;;;;;11.63;6.45;;;;;;;;;;5067893;28;20451;-83
2023/09/03 11:11:00;;;;;;;13.52;5.78;;;;;;;;;;5072498;28;20050;-83
2023/09/03 11:13:27;;;;;;;11.13;6.30;;;;;;;;;;5071827;28;20520;-83
2023/09/03 11:15:55;;;;;;;12.80;6.00;;;;;;;;;;5073368;28;20012;-83
2023/09/03 11:18:21;;;;;;;11.15;5.72;;;;;;;;;;5072295;28;20048;-83
2023/09/03 11:20:47;;;;;;;11.57;5.55;;;;;;;;;;5072278;28;20020;-83
2023/09/03 11:23:15;;;;;;;11.52;5.75;;;;;;;;;;5072035;28;20309;-83
2023/09/03 11:25:41;;;;;;;16.92;5.82;;;;;;;;;;5075422;28;20415;-81
2023/09/03 11:28:08;;;;;;;14.23;6.03;;;;;;;;;;5072872;28;20119;-82
2023/09/03 11:30:34;;;;;;;8.95;5.15;;;;;;;;;;5073355;28;20024;-83
2023/09/03 11:32:59;;;;;;;10.77;5.38;;;;;;;;;;5070367;28;20037;-86
2023/09/03 11:35:25;;;;;;;9.57;5.28;;;;;;;;;;5071839;28;20025;-85
2023/09/03 11:37:51;;;;;;;9.38;4.90;;;;;;;;;;5072841;28;20028;-85
2023/09/03 11:40:17;;;;;;;7.05;4.78;;;;;;;;;;5073771;28;20013;-85
2023/09/03 11:42:43;;;;;;;11.38;4.60;;;;;;;;;;5072231;28;20034;-85
2023/09/03 11:45:09;;;;;;;8.43;4.03;;;;;;;;;;5072347;28;20467;-85
2023/09/03 11:47:38;;;;;;;6.03;3.90;;;;;;;;;;5072179;28;20020;-85
2023/09/03 11:50:08;;;;;;;8.38;3.83;;;;;;;;;;5072456;28;20028;-85
2023/09/03 11:52:33;;;;;;;6.90;3.40;;;;;;;;;;5070896;28;20028;-84
2023/09/03 11:54:58;;;;;;;5.28;3.20;;;;;;;;;;5072455;28;20363;-84
2023/09/03 11:57:23;;;;;;;7.95;3.60;;;;;;;;;;5072215;28;20027;-84
2023/09/03 11:59:49;;;;;;;5.75;3.70;;;;;;;;;;5071863;28;20016;-85
2023/09/03 12:02:14;;;;;;;5.50;3.65;;;;;;;;;;5071992;28;20020;-85
2023/09/03 12:04:40;;;;;;;9.10;3.58;;;;;;;;;;5071888;28;20054;-85
2023/09/03 12:07:14;;;;;;;5.80;4.20;;;;;;;;;;5069409;28;20028;-85
2023/09/03 12:09:39;;;;;;;7.53;4.18;;;;;;;;;;5055813;28;20046;-85
2023/09/03 12:12:05;;;;;;;5.30;3.55;;;;;;;;;;5071557;28;20115;-85
2023/09/03 12:14:31;;;;;;;6.70;4.00;;;;;;;;;;5071966;28;20043;-85
2023/09/03 12:16:56;;;;;;;7.95;3.47;;;;;;;;;;5071618;28;20386;-85
2023/09/03 12:19:21;;;;;;;6.47;3.60;;;;;;;;;;5071713;28;20048;-85
2023/09/03 12:21:50;;;;;;;5.65;3.50;;;;;;;;;;5068481;28;20096;-85
2023/09/03 12:24:25;;;;;;;5.93;3.15;;;;;;;;;;5070867;28;20410;-85
2023/09/03 12:26:58;;;;;;;6.72;3.17;;;;;;;;;;5071817;28;20059;-85
2023/09/03 12:29:24;;;;;;;4.63;3.17;;;;;;;;;;5071729;28;20024;-85
2023/09/03 12:31:49;;;;;;;5.18;3.53;;;;;;;;;;5071072;28;20016;-85
2023/09/03 12:34:15;;;;;;;5.53;3.33;;;;;;;;;;5071625;28;20009;-85
2023/09/03 12:36:54;;;;;;;8.23;3.72;;;;;;;;;;5071516;28;20444;-85
2023/09/03 12:39:32;;;;;;;6.50;3.60;;;;;;;;;;5071702;28;20369;-85
2023/09/03 12:41:58;;;;;;;5.90;3.50;;;;;;;;;;5070895;28;20024;-85
2023/09/03 12:44:24;;;;;;;6.05;3.30;;;;;;;;;;5069333;28;20074;-85
2023/09/03 12:46:49;;;;;;;5.43;3.30;;;;;;;;;;5073143;28;20033;-85
2023/09/03 12:49:15;;;;;;;5.20;3.53;;;;;;;;;;5071858;28;20086;-85
2023/09/03 12:51:41;;;;;;;5.88;3.08;;;;;;;;;;5072104;28;20046;-85
2023/09/03 12:54:07;;;;;;;5.25;3.17;;;;;;;;;;5073260;28;20076;-85
2023/09/03 12:56:33;;;;;;;5.53;3.17;;;;;;;;;;5072033;28;20015;-85
2023/09/03 12:59:07;;;;;;;6.95;3.35;;;;;;;;;;5071173;28;20059;-85
2023/09/03 13:01:35;;;;;;;8.10;3.33;;;;;;;;;;5071642;28;20009;-85
2023/09/03 13:04:01;;;;;;;5.07;3.13;;;;;;;;;;5072032;28;20495;-85
2023/09/03 13:06:26;;;;;;;5.93;3.40;;;;;;;;;;5071818;28;20025;-85
2023/09/03 13:08:51;;;;;;;6.05;3.35;;;;;;;;;;5057432;28;20013;-85
2023/09/03 13:11:20;;;;;;;4.88;3.25;;;;;;;;;;5072837;28;20021;-85
2023/09/03 13:13:51;;;;;;;6.13;3.28;;;;;;;;;;5068310;28;20046;-84
2023/09/03 13:16:20;;;;;;;5.45;3.20;;;;;;;;;;5060516;28;20112;-85
2023/09/03 13:18:48;;;;;;;6.55;3.45;;;;;;;;;;5057297;28;20029;-85
2023/09/03 13:21:15;;;;;;;6.95;3.63;;;;;;;;;;5062989;28;20017;-84
2023/09/03 13:23:40;;;;;;;8.05;3.67;;;;;;;;;;5066504;28;20484;-85
2023/09/03 13:26:08;;;;;;;7.20;3.10;;;;;;;;;;5071598;28;20494;-85
2023/09/03 13:28:34;;;;;;;7.13;3.33;;;;;;;;;;5058304;28;20021;-86
2023/09/03 13:31:00;;;;;;;10.52;3.35;;;;;;;;;;5062964;28;20032;-85
2023/09/03 13:33:25;;;;;;;4.68;2.97;;;;;;;;;;5062732;28;20027;-86
2023/09/03 13:35:51;;;;;;;5.38;3.10;;;;;;;;;;5071091;28;20043;-85
2023/09/03 13:38:17;;;;;;;6.95;2.72;;;;;;;;;;5071148;28;20046;-85
2023/09/03 13:40:42;;;;;;;5.93;3.15;;;;;;;;;;5071229;28;20405;-85
2023/09/03 13:43:07;;;;;;;4.80;2.53;;;;;;;;;;5073480;28;20168;-85
2023/09/03 13:45:33;;;;;;;4.28;2.42;;;;;;;;;;5061985;28;20523;-85
2023/09/03 13:47:58;;;;;;;3.55;2.50;;;;;;;;;;5068767;28;20024;-85
2023/09/03 13:50:30;;;;;;;7.28;2.83;;;;;;;;;;5074612;28;20036;-84
2023/09/03 13:52:56;;;;;;;4.35;2.53;;;;;;;;;;5074775;28;20017;-86
2023/09/03 13:55:25;;;;;;;5.43;2.75;;;;;;;;;;5074908;28;20612;-85
2023/09/03 13:57:50;;;;;;;4.53;2.50;;;;;;;;;;5060856;28;20384;-86
2023/09/03 14:00:19;;;;;;;3.97;2.60;;;;;;;;;;5075190;28;20316;-85
2023/09/03 14:02:45;;;;;;;3.58;2.78;;;;;;;;;;5060578;28;20033;-85
2023/09/03 14:05:10;;;;;;;5.90;2.40;;;;;;;;;;5075256;28;20077;-84
2023/09/03 14:07:35;;;;;;;4.40;3.00;;;;;;;;;;5073243;28;20056;-85
2023/09/03 14:10:00;;;;;;;4.40;2.80;;;;;;;;;;5068878;28;20025;-85
2023/09/03 14:12:26;;;;;;;5.03;2.25;;;;;;;;;;5074787;28;20033;-83
2023/09/03 14:14:52;;;;;;;4.35;2.65;;;;;;;;;;5074664;28;20107;-85
2023/09/03 14:17:18;;;;;;;4.90;2.45;;;;;;;;;;5074657;28;20024;-85
2023/09/03 14:19:45;;;;;;;3.95;2.53;;;;;;;;;;5074373;28;20016;-86